Time;durP1;ratioP1;P1;durP2;ratioP2;P2;SDS_P1;SDS_P2;PMS_P1;PMS_P2;Temp;Humidity;BMP_temperature;BMP_pressure;BME280_temperature;BME280_humidity;BME280_pressure;Samples;Min_cycle;Max_cycle;Signal;HPM_P1;HPM_P2
2022/02/03 00:00:38;;;;;;;20.25;6.15;;;;;;;;;;5022041;28;20120;-62
2022/02/03 00:03:23;;;;;;;20.27;5.95;;;;;;;;;;5022848;28;20052;-62
2022/02/03 00:06:00;;;;;;;16.88;5.75;;;;;;;;;;5026872;28;20050;-63
2022/02/03 00:24:59;;;;;;;14.55;6.32;;;;;;;;;;5021446;28;20412;-62
2022/02/03 00:27:40;;;;;;;19.98;6.38;;;;;;;;;;5023461;28;20140;-62
2022/02/03 00:30:13;;;;;;;13.73;6.00;;;;;;;;;;5022659;28;20050;-62
2022/02/03 00:35:39;;;;;;;18.10;6.20;;;;;;;;;;5021233;28;20084;-63
2022/02/03 00:49:23;;;;;;;15.10;6.03;;;;;;;;;;4946023;28;20050;-63
2022/02/03 00:51:52;;;;;;;14.60;6.00;;;;;;;;;;4996313;28;20486;-63
2022/02/03 00:54:21;;;;;;;21.13;6.05;;;;;;;;;;5023467;28;20130;-63
2022/02/03 00:56:51;;;;;;;19.63;5.93;;;;;;;;;;5023827;28;20101;-63
2022/02/03 00:59:20;;;;;;;17.13;6.70;;;;;;;;;;5023577;28;20084;-63
2022/02/03 01:01:49;;;;;;;14.35;5.93;;;;;;;;;;5025255;28;20125;-63
2022/02/03 01:04:24;;;;;;;19.05;6.07;;;;;;;;;;5025218;28;20445;-63
2022/02/03 01:06:56;;;;;;;18.42;6.50;;;;;;;;;;5026126;28;20068;-63
2022/02/03 01:09:33;;;;;;;16.85;6.20;;;;;;;;;;5022072;28;20091;-63
2022/02/03 01:12:28;;;;;;;17.38;6.53;;;;;;;;;;5023065;28;20777;-63
2022/02/03 01:15:09;;;;;;;24.38;6.32;;;;;;;;;;5024646;28;20085;-63
2022/02/03 01:17:57;;;;;;;21.63;5.85;;;;;;;;;;5019809;28;20593;-63
2022/02/03 01:37:17;;;;;;;19.42;6.68;;;;;;;;;;5023445;28;20073;-63
2022/02/03 01:45:24;;;;;;;22.83;5.25;;;;;;;;;;5022274;28;20136;-63
2022/02/03 01:53:47;;;;;;;14.88;4.70;;;;;;;;;;5023580;28;20558;-63
2022/02/03 01:56:18;;;;;;;13.23;4.20;;;;;;;;;;5024323;28;20133;-64
2022/02/03 01:58:47;;;;;;;21.65;5.53;;;;;;;;;;5009002;28;20123;-63
2022/02/03 02:01:27;;;;;;;31.27;6.28;;;;;;;;;;5020150;28;20095;-63
2022/02/03 02:04:01;;;;;;;19.80;5.22;;;;;;;;;;5018957;28;20486;-63
2022/02/03 02:06:39;;;;;;;20.83;5.53;;;;;;;;;;5018837;28;20133;-63
2022/02/03 02:09:07;;;;;;;19.10;5.47;;;;;;;;;;5024876;28;20069;-63
2022/02/03 02:12:18;;;;;;;21.25;5.97;;;;;;;;;;5022041;28;20129;-63
2022/02/03 02:16:08;;;;;;;20.73;5.82;;;;;;;;;;5023767;28;20099;-63
2022/02/03 02:37:35;;;;;;;39.47;8.25;;;;;;;;;;5022841;28;20089;-63
2022/02/03 02:42:35;;;;;;;36.50;7.90;;;;;;;;;;5023477;28;20495;-63
2022/02/03 02:45:06;;;;;;;42.85;7.82;;;;;;;;;;5023769;28;20045;-63
2022/02/03 02:47:47;;;;;;;37.58;7.15;;;;;;;;;;5021503;28;20057;-63
2022/02/03 02:50:24;;;;;;;30.42;8.10;;;;;;;;;;5021336;28;20568;-63
2022/02/03 02:56:04;;;;;;;52.25;9.52;;;;;;;;;;5025564;28;20069;-63
2022/02/03 02:58:48;;;;;;;46.92;8.25;;;;;;;;;;5021264;28;20045;-63
2022/02/03 03:29:50;;;;;;;64.28;9.25;;;;;;;;;;5023394;28;20088;-63
2022/02/03 03:32:36;;;;;;;80.50;9.82;;;;;;;;;;5024330;28;20080;-63
2022/02/03 03:37:46;;;;;;;93.28;9.77;;;;;;;;;;5024879;28;20080;-63
2022/02/03 03:40:14;;;;;;;90.88;9.90;;;;;;;;;;5022278;28;20134;-63
2022/02/03 03:42:43;;;;;;;68.30;9.25;;;;;;;;;;5023175;28;20164;-63
2022/02/03 03:45:10;;;;;;;62.53;10.32;;;;;;;;;;5023049;28;20077;-63
2022/02/03 03:47:46;;;;;;;73.90;9.90;;;;;;;;;;5017851;28;20164;-63
2022/02/03 03:50:16;;;;;;;47.58;10.30;;;;;;;;;;5021271;28;20133;-63
2022/02/03 03:52:52;;;;;;;84.75;9.95;;;;;;;;;;5023292;28;20545;-63
2022/02/03 03:56:08;;;;;;;69.43;10.88;;;;;;;;;;5023251;28;20146;-63
2022/02/03 04:28:49;;;;;;;51.65;9.63;;;;;;;;;;5025551;28;20593;-63
2022/02/03 04:39:06;;;;;;;219.38;11.70;;;;;;;;;;5025849;28;20080;-63
2022/02/03 05:03:58;;;;;;;14.52;5.25;;;;;;;;;;5021838;28;20414;-63
2022/02/03 05:07:16;;;;;;;19.35;4.57;;;;;;;;;;5025557;28;20132;-63
2022/02/03 05:09:43;;;;;;;;;;;;;;;;;;5008282;28;20042;-63
2022/02/03 05:18:06;;;;;;;35.40;6.47;;;;;;;;;;5020198;28;20132;-63
2022/02/03 06:07:43;;;;;;;9.75;3.17;;;;;;;;;;4973307;28;20125;-63
2022/02/03 06:15:27;;;;;;;6.80;2.90;;;;;;;;;;5024835;28;20108;-63
2022/02/03 06:20:39;;;;;;;9.77;3.17;;;;;;;;;;5021906;28;20136;-63
2022/02/03 06:21:01;;;;;;;8.40;2.90;;;;;;;;;;5019714;28;20125;-63
2022/02/03 06:23:40;;;;;;;9.60;3.20;;;;;;;;;;5023118;28;20525;-63
2022/02/03 06:29:06;;;;;;;16.25;4.13;;;;;;;;;;5019943;28;20081;-63
2022/02/03 06:31:37;;;;;;;8.63;2.58;;;;;;;;;;5020037;28;20558;-63
2022/02/03 06:34:04;;;;;;;8.00;2.47;;;;;;;;;;5019014;28;20521;-63
2022/02/03 06:36:31;;;;;;;12.27;3.25;;;;;;;;;;5021498;28;20084;-63
2022/02/03 06:38:57;;;;;;;9.80;3.80;;;;;;;;;;5022751;28;20481;-63
2022/02/03 06:41:24;;;;;;;8.77;3.33;;;;;;;;;;5021691;28;20054;-63
2022/02/03 06:43:50;;;;;;;11.17;3.10;;;;;;;;;;5016399;28;20116;-63
2022/02/03 06:46:17;;;;;;;12.77;3.88;;;;;;;;;;5022858;28;20140;-63
2022/02/03 06:48:52;;;;;;;8.02;3.08;;;;;;;;;;5018428;28;20144;-63
2022/02/03 06:51:31;;;;;;;11.43;3.40;;;;;;;;;;5023177;28;20099;-63
2022/02/03 06:54:14;;;;;;;12.82;3.38;;;;;;;;;;5022193;28;20061;-63
2022/02/03 06:56:49;;;;;;;14.25;3.45;;;;;;;;;;5025955;28;20133;-63
2022/02/03 06:59:22;;;;;;;11.23;3.60;;;;;;;;;;5023505;28;20140;-63
2022/02/03 07:01:49;;;;;;;10.05;3.63;;;;;;;;;;5024973;28;20103;-64
2022/02/03 07:04:20;;;;;;;7.78;2.85;;;;;;;;;;5025536;28;20163;-63
2022/02/03 07:06:47;;;;;;;11.45;3.42;;;;;;;;;;5027956;28;20088;-63
2022/02/03 07:09:20;;;;;;;18.15;3.70;;;;;;;;;;5022850;28;20132;-63
2022/02/03 07:11:47;;;;;;;53.78;7.18;;;;;;;;;;5020155;28;20084;-63
2022/02/03 07:14:13;;;;;;;34.15;5.70;;;;;;;;;;5023753;28;20596;-63
2022/02/03 07:16:47;;;;;;;38.17;7.68;;;;;;;;;;5024739;28;20072;-63
2022/02/03 07:19:13;;;;;;;24.10;5.60;;;;;;;;;;5024874;28;20077;-62
2022/02/03 07:21:41;;;;;;;;;;;;;;;;;;5023746;28;20140;-63
2022/02/03 07:24:07;;;;;;;17.35;4.30;;;;;;;;;;5025316;28;20426;-63
2022/02/03 07:26:33;;;;;;;24.80;4.10;;;;;;;;;;5024742;28;20058;-63
2022/02/03 07:29:07;;;;;;;12.90;4.20;;;;;;;;;;5024241;28;20081;-63
2022/02/03 07:31:33;;;;;;;9.18;3.40;;;;;;;;;;5024940;28;20141;-63
2022/02/03 07:34:08;;;;;;;15.20;4.03;;;;;;;;;;5023144;28;20073;-63
2022/02/03 07:36:38;;;;;;;9.07;3.33;;;;;;;;;;5023958;28;20459;-63
2022/02/03 07:39:06;;;;;;;7.70;3.33;;;;;;;;;;5023738;28;20144;-63
2022/02/03 07:41:32;;;;;;;8.93;3.15;;;;;;;;;;5023643;28;20621;-63
2022/02/03 07:43:59;;;;;;;8.15;3.40;;;;;;;;;;5025849;28;20085;-63
2022/02/03 07:46:25;;;;;;;19.35;4.43;;;;;;;;;;5021676;28;20497;-63
2022/02/03 07:48:53;;;;;;;21.25;5.43;;;;;;;;;;5022227;28;20141;-63
2022/02/03 07:51:20;;;;;;;18.40;5.43;;;;;;;;;;5026968;28;20080;-63
2022/02/03 07:53:46;;;;;;;58.83;9.82;;;;;;;;;;5022755;28;20591;-63
2022/02/03 07:56:13;;;;;;;60.25;10.45;;;;;;;;;;5025591;28;20128;-63
2022/02/03 07:58:40;;;;;;;47.47;8.95;;;;;;;;;;5026903;28;20134;-63
2022/02/03 08:01:06;;;;;;;41.80;6.93;;;;;;;;;;5027834;28;20069;-63
2022/02/03 08:03:33;;;;;;;37.42;7.15;;;;;;;;;;5025288;28;20391;-63
2022/02/03 08:06:05;;;;;;;25.48;5.38;;;;;;;;;;5025287;28;20893;-63
2022/02/03 08:08:37;;;;;;;10.73;3.40;;;;;;;;;;5022943;28;20132;-63
2022/02/03 08:11:08;;;;;;;14.45;3.53;;;;;;;;;;5025310;28;20141;-63
2022/02/03 08:13:45;;;;;;;15.25;4.07;;;;;;;;;;5022634;28;20092;-63
2022/02/03 08:16:24;;;;;;;7.88;3.38;;;;;;;;;;5023211;28;20057;-63
2022/02/03 08:18:57;;;;;;;11.52;3.13;;;;;;;;;;5023774;28;20124;-63
2022/02/03 08:21:24;;;;;;;13.07;3.83;;;;;;;;;;5024041;28;20108;-63
2022/02/03 08:29:13;;;;;;;15.52;3.95;;;;;;;;;;5022836;28;20161;-63
2022/02/03 08:31:49;;;;;;;11.68;3.75;;;;;;;;;;5021568;28;20077;-63
2022/02/03 08:34:35;;;;;;;17.60;4.85;;;;;;;;;;5028645;28;20135;-63
2022/02/03 08:37:04;;;;;;;10.75;3.47;;;;;;;;;;5026236;28;20042;-63
2022/02/03 08:39:37;;;;;;;8.73;3.70;;;;;;;;;;5025988;28;20072;-63
2022/02/03 08:42:04;;;;;;;13.07;3.47;;;;;;;;;;5022480;28;20088;-64
2022/02/03 08:44:30;;;;;;;18.30;4.57;;;;;;;;;;5025422;28;20053;-63
2022/02/03 08:46:58;;;;;;;11.10;4.07;;;;;;;;;;5023294;28;20165;-63
2022/02/03 08:49:24;;;;;;;12.35;3.92;;;;;;;;;;5022437;28;20239;-63
2022/02/03 08:51:51;;;;;;;12.45;3.90;;;;;;;;;;5023040;28;20103;-63
2022/02/03 08:54:29;;;;;;;20.85;4.47;;;;;;;;;;5021675;28;20137;-64
2022/02/03 08:57:06;;;;;;;13.52;3.95;;;;;;;;;;5018290;28;20569;-63
2022/02/03 09:00:13;;;;;;;8.93;2.58;;;;;;;;;;5024543;28;20077;-63
2022/02/03 09:59:50;;;;;;;11.70;5.22;;;;;;;;;;5044204;28;20500;-63
2022/02/03 10:02:30;;;;;;;12.07;5.65;;;;;;;;;;5041239;28;20037;-63
2022/02/03 10:05:30;;;;;;;12.02;5.63;;;;;;;;;;5041371;28;20052;-63
2022/02/03 10:07:51;;;;;;;9.77;5.07;;;;;;;;;;5039217;28;20049;-64
2022/02/03 10:10:38;;;;;;;9.77;4.72;;;;;;;;;;5043591;28;20053;-63
2022/02/03 10:13:21;;;;;;;9.80;5.30;;;;;;;;;;5035824;28;20478;-63
2022/02/03 10:15:48;;;;;;;10.23;4.95;;;;;;;;;;5044403;28;20091;-63
2022/02/03 10:18:22;;;;;;;12.88;5.03;;;;;;;;;;5043129;28;20073;-63
2022/02/03 10:20:49;;;;;;;12.65;5.63;;;;;;;;;;5041875;28;20048;-63
2022/02/03 10:23:21;;;;;;;10.30;5.37;;;;;;;;;;5043961;28;20087;-63
2022/02/03 10:26:06;;;;;;;9.88;4.70;;;;;;;;;;5043282;28;20144;-63
2022/02/03 10:28:35;;;;;;;9.40;4.50;;;;;;;;;;5041489;28;20081;-63
2022/02/03 10:31:05;;;;;;;12.65;4.55;;;;;;;;;;5044814;28;20084;-63
2022/02/03 10:33:31;;;;;;;;;;;;;;;;;;5042802;28;20145;-63
2022/02/03 10:36:04;;;;;;;10.02;3.80;;;;;;;;;;5046385;28;19964;-63
2022/02/03 10:41:20;;;;;;;5.55;3.38;;;;;;;;;;5045485;28;20546;-64
2022/02/03 10:49:40;;;;;;;6.43;3.05;;;;;;;;;;5043007;28;20152;-63
2022/02/03 10:52:38;;;;;;;5.90;2.90;;;;;;;;;;5047623;28;20592;-64
2022/02/03 11:03:18;;;;;;;7.63;2.65;;;;;;;;;;5024816;28;20081;-64
2022/02/03 11:08:46;;;;;;;7.10;2.88;;;;;;;;;;5023662;28;20423;-64
2022/02/03 11:11:18;;;;;;;6.10;2.80;;;;;;;;;;5023726;28;20597;-64
2022/02/03 11:13:45;;;;;;;7.10;2.33;;;;;;;;;;5025594;28;20068;-65
2022/02/03 11:16:12;;;;;;;7.47;1.90;;;;;;;;;;5026933;28;20081;-64
2022/02/03 11:18:41;;;;;;;4.20;1.73;;;;;;;;;;5025811;28;20064;-64
2022/02/03 11:21:08;;;;;;;2.53;1.90;;;;;;;;;;5024798;28;20081;-64
2022/02/03 11:23:40;;;;;;;4.88;1.83;;;;;;;;;;5025324;28;20136;-64
2022/02/03 11:29:09;;;;;;;8.73;2.47;;;;;;;;;;5022203;28;20100;-64
2022/02/03 12:01:39;;;;;;;;;;;;;;;;;;5024997;28;20128;-64
2022/02/03 12:23:42;;;;;;;8.65;3.60;;;;;;;;;;5024370;28;20081;-64
2022/02/03 12:26:19;;;;;;;5.63;2.45;;;;;;;;;;5023616;28;20053;-64
2022/02/03 12:28:57;;;;;;;8.45;3.67;;;;;;;;;;5023843;28;20088;-65
2022/02/03 12:39:16;;;;;;;7.85;2.78;;;;;;;;;;5022582;28;20140;-65
2022/02/03 12:41:59;;;;;;;3.42;2.22;;;;;;;;;;5019673;28;20128;-65
2022/02/03 12:44:29;;;;;;;2.92;1.80;;;;;;;;;;5022649;28;20132;-65
2022/02/03 12:47:01;;;;;;;;;;;;;;;;;;5022618;28;20551;-65
2022/02/03 12:49:30;;;;;;;6.47;2.00;;;;;;;;;;5021711;28;20011;-66
2022/02/03 12:51:56;;;;;;;4.85;2.50;;;;;;;;;;5020519;28;20132;-66
2022/02/03 12:54:23;;;;;;;7.90;2.30;;;;;;;;;;5021493;28;20097;-66
2022/02/03 12:56:58;;;;;;;7.10;2.25;;;;;;;;;;5021127;28;20049;-66
2022/02/03 12:59:26;;;;;;;4.63;1.90;;;;;;;;;;5021402;28;20130;-66
2022/02/03 13:01:53;;;;;;;5.32;1.63;;;;;;;;;;5021908;28;20141;-65
2022/02/03 13:04:21;;;;;;;3.00;1.98;;;;;;;;;;5020763;28;20132;-66
2022/02/03 13:07:02;;;;;;;4.57;1.90;;;;;;;;;;5020788;28;20470;-65
2022/02/03 13:09:43;;;;;;;1.55;1.30;;;;;;;;;;5023283;28;20166;-67
2022/02/03 13:12:21;;;;;;;4.50;2.95;;;;;;;;;;5023792;28;20081;-66
2022/02/03 13:14:57;;;;;;;4.15;2.33;;;;;;;;;;5021087;28;20053;-65
2022/02/03 13:17:30;;;;;;;3.90;2.00;;;;;;;;;;5021087;28;20501;-66
2022/02/03 13:20:07;;;;;;;4.85;2.55;;;;;;;;;;5023637;28;20085;-66
2022/02/03 13:22:53;;;;;;;4.00;2.55;;;;;;;;;;5022940;28;20413;-66
2022/02/03 13:25:45;;;;;;;6.00;2.78;;;;;;;;;;5018528;28;20144;-66
2022/02/03 13:28:24;;;;;;;6.32;2.78;;;;;;;;;;5020348;28;20930;-66
2022/02/03 13:30:58;;;;;;;4.00;2.03;;;;;;;;;;5023861;28;20152;-66
2022/02/03 13:33:41;;;;;;;3.35;2.15;;;;;;;;;;5024910;28;20556;-66
2022/02/03 13:36:16;;;;;;;4.88;2.28;;;;;;;;;;5023732;28;20095;-66
2022/02/03 13:38:58;;;;;;;4.63;2.15;;;;;;;;;;5022426;28;20084;-66
2022/02/03 13:41:27;;;;;;;3.13;1.92;;;;;;;;;;5021652;28;20057;-66
2022/02/03 13:43:55;;;;;;;3.72;2.20;;;;;;;;;;5024118;28;20077;-66
2022/02/03 13:46:32;;;;;;;5.15;2.03;;;;;;;;;;5024619;28;20461;-66
2022/02/03 13:49:00;;;;;;;3.78;1.98;;;;;;;;;;5023783;28;20073;-66
2022/02/03 13:51:28;;;;;;;2.50;1.92;;;;;;;;;;5019889;28;20161;-66
2022/02/03 13:54:08;;;;;;;1.83;1.63;;;;;;;;;;5027915;28;20167;-67
2022/02/03 14:12:01;;;;;;;2.30;1.63;;;;;;;;;;5039642;28;20049;-67
2022/02/03 14:22:13;;;;;;;4.03;2.47;;;;;;;;;;5040996;28;20045;-67
2022/02/03 14:27:52;;;;;;;4.32;1.13;;;;;;;;;;5043539;28;20055;-67
2022/02/03 14:30:25;;;;;;;2.35;1.25;;;;;;;;;;5044057;28;20446;-67
2022/02/03 14:32:56;;;;;;;2.58;1.30;;;;;;;;;;5041801;28;20145;-66
2022/02/03 14:35:23;;;;;;;2.58;1.48;;;;;;;;;;5042401;28;20092;-67
2022/02/03 14:42:56;;;;;;;2.05;1.45;;;;;;;;;;5043522;28;20655;-67
2022/02/03 14:45:23;;;;;;;3.35;1.27;;;;;;;;;;5042355;28;20132;-67
2022/02/03 14:47:49;;;;;;;2.20;1.20;;;;;;;;;;5041686;28;20703;-67
2022/02/03 14:50:16;;;;;;;2.28;1.17;;;;;;;;;;5038579;28;20050;-67
2022/02/03 14:52:58;;;;;;;2.20;0.80;;;;;;;;;;5040317;28;20045;-67
2022/02/03 14:58:23;;;;;;;1.70;0.90;;;;;;;;;;5042569;28;20082;-67
2022/02/03 15:00:50;;;;;;;1.08;1.02;;;;;;;;;;5041280;28;20095;-67
2022/02/03 15:03:17;;;;;;;2.33;1.02;;;;;;;;;;5041735;28;20405;-67
2022/02/03 15:05:51;;;;;;;1.10;0.70;;;;;;;;;;5039844;28;20053;-67
2022/02/03 15:08:21;;;;;;;2.38;0.77;;;;;;;;;;5043957;28;20338;-67
2022/02/03 15:11:02;;;;;;;2.10;1.05;;;;;;;;;;5045521;28;20575;-67
2022/02/03 15:13:35;;;;;;;1.85;1.10;;;;;;;;;;5039781;28;20524;-67
2022/02/03 15:16:02;;;;;;;1.20;0.88;;;;;;;;;;5043881;28;20080;-67
2022/02/03 15:18:29;;;;;;;0.82;0.70;;;;;;;;;;5045862;28;20130;-67
2022/02/03 15:20:56;;;;;;;3.00;1.20;;;;;;;;;;5043902;28;20520;-67
2022/02/03 15:23:24;;;;;;;1.27;1.00;;;;;;;;;;5044938;28;20041;-67
2022/02/03 15:25:53;;;;;;;1.85;1.00;;;;;;;;;;5045052;28;20079;-67
2022/02/03 15:28:24;;;;;;;1.42;0.80;;;;;;;;;;5044288;28;20110;-67
2022/02/03 15:30:50;;;;;;;2.45;1.10;;;;;;;;;;5044017;28;20147;-67
2022/02/03 15:33:27;;;;;;;1.30;0.90;;;;;;;;;;5044769;28;20089;-67
2022/02/03 15:35:58;;;;;;;0.70;0.70;;;;;;;;;;5044772;28;20144;-67
2022/02/03 15:38:34;;;;;;;0.88;0.82;;;;;;;;;;5042743;28;21830;-67
2022/02/03 15:41:04;;;;;;;0.98;0.70;;;;;;;;;;5047236;28;20087;-67
2022/02/03 15:43:38;;;;;;;2.28;1.55;;;;;;;;;;5046490;28;20543;-67
2022/02/03 15:46:05;;;;;;;2.25;1.00;;;;;;;;;;5043498;28;20148;-67
2022/02/03 15:48:42;;;;;;;0.60;0.60;;;;;;;;;;5042326;28;20049;-67
2022/02/03 15:56:07;;;;;;;1.15;0.80;;;;;;;;;;5045422;28;20052;-67
2022/02/03 15:57:02;;;;;;;2.42;1.10;;;;;;;;;;5044569;28;20103;-67
2022/02/03 16:18:58;;;;;;;0.93;0.77;;;;;;;;;;5039632;28;20127;-67
2022/02/03 16:21:37;;;;;;;1.10;0.90;;;;;;;;;;5041518;28;20087;-67
2022/02/03 16:27:03;;;;;;;3.25;2.00;;;;;;;;;;5041812;28;20083;-67
2022/02/03 16:43:32;;;;;;;1.27;0.95;;;;;;;;;;5040410;28;20076;-67
2022/02/03 16:51:37;;;;;;;3.63;1.55;;;;;;;;;;5037321;28;20140;-67
2022/02/03 16:54:11;;;;;;;2.00;1.80;;;;;;;;;;5034515;28;20189;-67
2022/02/03 16:56:38;;;;;;;2.20;2.00;;;;;;;;;;5015854;28;20195;-67
2022/02/03 16:59:07;;;;;;;1.55;1.10;;;;;;;;;;5016661;28;20053;-67
2022/02/03 17:01:33;;;;;;;1.23;0.93;;;;;;;;;;5017831;28;20063;-67
2022/02/03 17:04:04;;;;;;;3.90;1.20;;;;;;;;;;5018145;28;20482;-68
2022/02/03 17:06:30;;;;;;;1.33;1.10;;;;;;;;;;5015168;28;20048;-67
2022/02/03 17:08:57;;;;;;;3.42;1.95;;;;;;;;;;5014159;28;20046;-67
2022/02/03 17:11:26;;;;;;;3.17;2.20;;;;;;;;;;5021495;28;20140;-67
2022/02/03 17:13:52;;;;;;;2.08;1.63;;;;;;;;;;5020620;28;20504;-67
2022/02/03 17:16:40;;;;;;;24.20;16.55;;;;;;;;;;5022050;28;20058;-67
2022/02/03 17:19:06;;;;;;;1.40;1.30;;;;;;;;;;5018259;28;20081;-67
2022/02/03 17:21:33;;;;;;;4.60;3.05;;;;;;;;;;5017047;28;20424;-67
2022/02/03 17:24:01;;;;;;;4.32;3.28;;;;;;;;;;5017565;28;20685;-67
2022/02/03 17:26:38;;;;;;;18.95;13.75;;;;;;;;;;5015092;28;20140;-67
2022/02/03 17:29:19;;;;;;;1.83;1.40;;;;;;;;;;5017768;28;20545;-67
2022/02/03 17:31:55;;;;;;;1.55;1.45;;;;;;;;;;5017109;28;20598;-67
2022/02/03 17:45:19;;;;;;;2.65;1.25;;;;;;;;;;5015732;28;22015;-67
2022/02/03 18:08:35;;;;;;;3.97;3.15;;;;;;;;;;5020432;28;20137;-67
2022/02/03 18:54:25;;;;;;;1.27;1.00;;;;;;;;;;5004303;28;20156;-67
2022/02/03 18:57:20;;;;;;;5.82;2.50;;;;;;;;;;5023249;28;20513;-67
2022/02/03 19:03:03;;;;;;;9.60;7.50;;;;;;;;;;4983388;28;20468;-67
2022/02/03 19:27:26;;;;;;;2.92;2.65;;;;;;;;;;5021434;28;20045;-67
2022/02/03 20:05:39;;;;;;;0.90;0.90;;;;;;;;;;5017118;28;20191;-67
2022/02/03 20:10:46;;;;;;;2.60;1.00;;;;;;;;;;5020775;28;20092;-67
2022/02/03 20:13:12;;;;;;;0.90;0.80;;;;;;;;;;5018771;28;20063;-68
2022/02/03 20:15:46;;;;;;;0.75;0.70;;;;;;;;;;5019006;28;20048;-67
2022/02/03 20:18:12;;;;;;;1.40;0.73;;;;;;;;;;5018954;28;20961;-68
2022/02/03 20:20:39;;;;;;;0.60;0.60;;;;;;;;;;5018714;28;20511;-68
2022/02/03 20:23:16;;;;;;;0.73;0.73;;;;;;;;;;5018919;28;20136;-68
2022/02/03 20:25:45;;;;;;;1.20;0.80;;;;;;;;;;5020747;28;20077;-68
2022/02/03 20:28:12;;;;;;;0.60;0.60;;;;;;;;;;5022929;28;20140;-68
2022/02/03 20:30:46;;;;;;;1.42;0.90;;;;;;;;;;5020902;28;20080;-68
2022/02/03 20:33:12;;;;;;;44.17;27.90;;;;;;;;;;5019457;28;20135;-67
2022/02/03 20:35:39;;;;;;;11.35;8.70;;;;;;;;;;5019440;28;20525;-67
2022/02/03 20:38:06;;;;;;;5.45;4.57;;;;;;;;;;5020403;28;20137;-68
2022/02/03 20:40:33;;;;;;;3.63;3.17;;;;;;;;;;5019976;28;20049;-67
2022/02/03 20:42:59;;;;;;;4.15;2.58;;;;;;;;;;5020746;28;20092;-68
2022/02/03 20:45:28;;;;;;;3.55;2.53;;;;;;;;;;5019864;28;20148;-67
2022/02/03 20:47:54;;;;;;;2.47;1.98;;;;;;;;;;5022274;28;20049;-68
2022/02/03 20:50:21;;;;;;;2.70;2.08;;;;;;;;;;5022972;28;20148;-67
2022/02/03 20:52:48;;;;;;;1.55;1.40;;;;;;;;;;5018863;28;20754;-68
2022/02/03 20:55:15;;;;;;;1.80;1.58;;;;;;;;;;5026829;28;20139;-68
2022/02/03 20:57:42;;;;;;;1.10;1.00;;;;;;;;;;5038913;28;20538;-68
2022/02/03 21:00:39;;;;;;;1.20;1.00;;;;;;;;;;5036913;28;20136;-67
2022/02/03 21:03:08;;;;;;;1.10;1.00;;;;;;;;;;5040454;28;20048;-67
2022/02/03 21:05:34;;;;;;;2.58;1.13;;;;;;;;;;5037507;28;20128;-67
2022/02/03 21:08:01;;;;;;;1.73;1.10;;;;;;;;;;5038469;28;20049;-68
2022/02/03 21:10:30;;;;;;;1.60;1.30;;;;;;;;;;5044110;28;20080;-68
2022/02/03 21:12:58;;;;;;;1.20;1.10;;;;;;;;;;5040075;28;20507;-68
2022/02/03 21:15:30;;;;;;;1.23;1.03;;;;;;;;;;5040783;28;20068;-68
2022/02/03 21:18:01;;;;;;;1.92;1.30;;;;;;;;;;5043564;28;20088;-68
2022/02/03 21:20:27;;;;;;;1.50;1.20;;;;;;;;;;5043578;28;20571;-69
2022/02/03 21:22:54;;;;;;;1.52;1.15;;;;;;;;;;5043076;28;20131;-68
2022/02/03 21:25:32;;;;;;;2.83;1.48;;;;;;;;;;5039752;28;20139;-68
2022/02/03 21:28:06;;;;;;;1.83;1.52;;;;;;;;;;5041547;28;20072;-68
2022/02/03 21:30:33;;;;;;;1.80;1.33;;;;;;;;;;5022067;28;20077;-68
2022/02/03 21:33:00;;;;;;;2.60;1.45;;;;;;;;;;5043265;28;20049;-68
2022/02/03 21:35:28;;;;;;;2.00;1.13;;;;;;;;;;5040838;28;20529;-68
2022/02/03 21:37:55;;;;;;;2.25;1.70;;;;;;;;;;5041254;28;20383;-68
2022/02/03 21:40:22;;;;;;;3.50;2.10;;;;;;;;;;5042819;28;20131;-68
2022/02/03 21:42:49;;;;;;;1.45;1.30;;;;;;;;;;5040110;28;20057;-68
2022/02/03 21:45:18;;;;;;;2.80;1.75;;;;;;;;;;5037495;28;20140;-68
2022/02/03 21:47:47;;;;;;;2.65;1.80;;;;;;;;;;5038484;28;20135;-68
2022/02/03 21:50:13;;;;;;;4.68;2.20;;;;;;;;;;5041863;28;20131;-68
2022/02/03 21:53:03;;;;;;;3.55;1.83;;;;;;;;;;5037989;28;21023;-68
2022/02/03 21:55:32;;;;;;;2.42;1.65;;;;;;;;;;5038780;28;20595;-68
2022/02/03 21:57:59;;;;;;;5.43;2.60;;;;;;;;;;5044146;28;20211;-67
2022/02/03 22:00:25;;;;;;;3.40;2.30;;;;;;;;;;5041563;28;20124;-67
2022/02/03 22:02:52;;;;;;;2.88;2.17;;;;;;;;;;5044037;28;20144;-68
2022/02/03 22:05:19;;;;;;;6.35;2.75;;;;;;;;;;5040632;28;20068;-68
2022/02/03 22:07:46;;;;;;;3.20;2.23;;;;;;;;;;5042147;28;20056;-67
2022/02/03 22:10:20;;;;;;;3.85;2.53;;;;;;;;;;5042859;28;20663;-68
2022/02/03 22:12:47;;;;;;;10.15;3.08;;;;;;;;;;5040879;28;20053;-68
2022/02/03 22:15:14;;;;;;;5.07;2.78;;;;;;;;;;5040015;28;20084;-68
2022/02/03 22:17:41;;;;;;;3.58;2.63;;;;;;;;;;5040379;28;20088;-67
2022/02/03 22:20:16;;;;;;;2.97;1.88;;;;;;;;;;5042816;28;20073;-67
2022/02/03 22:23:42;;;;;;;5.03;2.80;;;;;;;;;;5037262;28;20484;-67
2022/02/03 22:40:02;;;;;;;46.35;6.57;;;;;;;;;;5038945;28;20132;-66
2022/02/03 22:47:35;;;;;;;10.23;3.90;;;;;;;;;;5039219;28;20183;-66
2022/02/03 22:50:08;;;;;;;11.90;3.92;;;;;;;;;;5040751;28;20099;-66
2022/02/03 22:52:36;;;;;;;11.00;4.10;;;;;;;;;;5039215;28;20193;-66
2022/02/03 22:55:03;;;;;;;15.55;4.07;;;;;;;;;;5036136;28;20688;-66
2022/02/03 22:57:30;;;;;;;21.42;4.85;;;;;;;;;;5021257;28;20504;-66
2022/02/03 23:02:35;;;;;;;65.40;7.47;;;;;;;;;;5021315;28;20054;-66
2022/02/03 23:05:02;;;;;;;547.53;26.10;;;;;;;;;;5023071;28;20145;-66
2022/02/03 23:07:51;;;;;;;105.93;7.57;;;;;;;;;;5019532;28;20073;-67
2022/02/03 23:10:23;;;;;;;500.30;23.55;;;;;;;;;;5023487;28;20092;-66
2022/02/03 23:23:41;;;;;;;614.20;29.98;;;;;;;;;;5015613;28;20470;-66
2022/02/03 23:26:09;;;;;;;740.67;35.03;;;;;;;;;;5021580;28;20180;-66
2022/02/03 23:28:37;;;;;;;596.65;28.05;;;;;;;;;;5022940;28;20045;-67
2022/02/03 23:31:03;;;;;;;336.55;17.67;;;;;;;;;;5021496;28;20709;-66
2022/02/03 23:33:32;;;;;;;402.98;19.13;;;;;;;;;;5020792;28;20042;-66
2022/02/03 23:35:58;;;;;;;637.80;28.38;;;;;;;;;;5023691;28;20145;-66
2022/02/03 23:44:10;;;;;;;889.72;42.97;;;;;;;;;;5024885;28;20560;-66
2022/02/03 23:50:00;;;;;;;742.63;36.05;;;;;;;;;;5020903;28;20092;-66
